sensor_id;sensor_type;location;lat;lon;timestamp;P1;durP1;ratioP1;P2;durP2;ratioP2
16468;SDS011;8345;50.902;6.956;2022-09-09T00:00:42;2.63;;;1.20;;
16468;SDS011;8345;50.902;6.956;2022-09-09T00:03:12;1.67;;;1.17;;
16468;SDS011;8345;50.902;6.956;2022-09-09T00:05:43;2.37;;;1.20;;
16468;SDS011;8345;50.902;6.956;2022-09-09T00:08:13;1.87;;;1.30;;
16468;SDS011;8345;50.902;6.956;2022-09-09T00:10:42;2.33;;;1.10;;
16468;SDS011;8345;50.902;6.956;2022-09-09T00:13:13;5.10;;;1.40;;
16468;SDS011;8345;50.902;6.956;2022-09-09T00:15:46;2.80;;;1.07;;
16468;SDS011;8345;50.902;6.956;2022-09-09T00:18:17;1.60;;;1.50;;
16468;SDS011;8345;50.902;6.956;2022-09-09T00:20:49;3.23;;;1.43;;
16468;SDS011;8345;50.902;6.956;2022-09-09T00:23:20;1.87;;;1.10;;
16468;SDS011;8345;50.902;6.956;2022-09-09T00:25:51;2.63;;;1.20;;
16468;SDS011;8345;50.902;6.956;2022-09-09T00:28:23;2.73;;;1.27;;
16468;SDS011;8345;50.902;6.956;2022-09-09T00:30:53;3.53;;;1.53;;
16468;SDS011;8345;50.902;6.956;2022-09-09T00:33:22;2.13;;;1.40;;
16468;SDS011;8345;50.902;6.956;2022-09-09T00:35:50;1.90;;;1.00;;
16468;SDS011;8345;50.902;6.956;2022-09-09T00:38:19;2.30;;;1.20;;
16468;SDS011;8345;50.902;6.956;2022-09-09T00:40:49;2.20;;;1.10;;
16468;SDS011;8345;50.902;6.956;2022-09-09T00:43:22;2.40;;;1.53;;
16468;SDS011;8345;50.902;6.956;2022-09-09T00:45:54;1.63;;;1.17;;
16468;SDS011;8345;50.902;6.956;2022-09-09T00:48:27;4.20;;;1.10;;
16468;SDS011;8345;50.902;6.956;2022-09-09T00:50:57;1.10;;;0.80;;
16468;SDS011;8345;50.902;6.956;2022-09-09T00:53:29;1.90;;;1.63;;
16468;SDS011;8345;50.902;6.956;2022-09-09T00:56:00;2.80;;;1.67;;
16468;SDS011;8345;50.902;6.956;2022-09-09T00:58:32;2.97;;;1.70;;
16468;SDS011;8345;50.902;6.956;2022-09-09T01:01:02;3.37;;;1.60;;
16468;SDS011;8345;50.902;6.956;2022-09-09T01:03:33;1.70;;;1.30;;
16468;SDS011;8345;50.902;6.956;2022-09-09T01:06:02;1.47;;;1.10;;
16468;SDS011;8345;50.902;6.956;2022-09-09T01:08:39;2.33;;;1.03;;
16468;SDS011;8345;50.902;6.956;2022-09-09T01:11:10;2.40;;;1.00;;
16468;SDS011;8345;50.902;6.956;2022-09-09T01:13:39;2.90;;;1.13;;
16468;SDS011;8345;50.902;6.956;2022-09-09T01:16:10;2.03;;;1.20;;
16468;SDS011;8345;50.902;6.956;2022-09-09T01:18:39;1.37;;;1.17;;
16468;SDS011;8345;50.902;6.956;2022-09-09T01:21:09;2.60;;;1.47;;
16468;SDS011;8345;50.902;6.956;2022-09-09T01:23:44;2.67;;;1.30;;
16468;SDS011;8345;50.902;6.956;2022-09-09T01:26:26;1.83;;;1.10;;
16468;SDS011;8345;50.902;6.956;2022-09-09T01:28:53;2.43;;;0.87;;
16468;SDS011;8345;50.902;6.956;2022-09-09T01:31:21;3.67;;;1.20;;
16468;SDS011;8345;50.902;6.956;2022-09-09T01:33:49;1.30;;;0.93;;
16468;SDS011;8345;50.902;6.956;2022-09-09T01:36:19;1.57;;;0.90;;
16468;SDS011;8345;50.902;6.956;2022-09-09T01:38:48;1.40;;;1.30;;
16468;SDS011;8345;50.902;6.956;2022-09-09T01:41:15;2.03;;;1.10;;
16468;SDS011;8345;50.902;6.956;2022-09-09T01:43:44;3.47;;;1.30;;
16468;SDS011;8345;50.902;6.956;2022-09-09T01:46:11;1.37;;;0.93;;
16468;SDS011;8345;50.902;6.956;2022-09-09T01:48:39;2.03;;;1.20;;
16468;SDS011;8345;50.902;6.956;2022-09-09T01:51:07;1.67;;;1.10;;
16468;SDS011;8345;50.902;6.956;2022-09-09T01:53:35;1.97;;;1.20;;
16468;SDS011;8345;50.902;6.956;2022-09-09T01:56:05;1.40;;;1.00;;
16468;SDS011;8345;50.902;6.956;2022-09-09T01:58:38;2.10;;;1.20;;
16468;SDS011;8345;50.902;6.956;2022-09-09T02:01:11;1.57;;;1.10;;
16468;SDS011;8345;50.902;6.956;2022-09-09T02:03:39;3.10;;;1.43;;
16468;SDS011;8345;50.902;6.956;2022-09-09T02:06:10;2.80;;;1.20;;
16468;SDS011;8345;50.902;6.956;2022-09-09T02:08:42;2.33;;;1.40;;
16468;SDS011;8345;50.902;6.956;2022-09-09T02:11:11;1.73;;;1.10;;
16468;SDS011;8345;50.902;6.956;2022-09-09T02:13:40;3.30;;;1.33;;
16468;SDS011;8345;50.902;6.956;2022-09-09T02:16:10;2.40;;;1.10;;
16468;SDS011;8345;50.902;6.956;2022-09-09T02:18:40;1.47;;;0.97;;
16468;SDS011;8345;50.902;6.956;2022-09-09T02:21:09;2.53;;;1.40;;
16468;SDS011;8345;50.902;6.956;2022-09-09T02:23:37;2.37;;;1.30;;
16468;SDS011;8345;50.902;6.956;2022-09-09T02:26:04;2.37;;;1.50;;
16468;SDS011;8345;50.902;6.956;2022-09-09T02:28:32;2.37;;;1.13;;
16468;SDS011;8345;50.902;6.956;2022-09-09T02:31:01;4.53;;;1.53;;
16468;SDS011;8345;50.902;6.956;2022-09-09T02:33:30;3.00;;;1.50;;
16468;SDS011;8345;50.902;6.956;2022-09-09T02:36:00;3.77;;;1.50;;
16468;SDS011;8345;50.902;6.956;2022-09-09T02:38:28;2.87;;;1.33;;
16468;SDS011;8345;50.902;6.956;2022-09-09T02:40:57;3.33;;;1.50;;
16468;SDS011;8345;50.902;6.956;2022-09-09T02:43:24;5.47;;;1.70;;
16468;SDS011;8345;50.902;6.956;2022-09-09T02:45:53;2.13;;;1.27;;
16468;SDS011;8345;50.902;6.956;2022-09-09T02:48:23;2.00;;;1.03;;
16468;SDS011;8345;50.902;6.956;2022-09-09T02:50:54;2.10;;;1.20;;
16468;SDS011;8345;50.902;6.956;2022-09-09T02:53:24;5.13;;;1.40;;
16468;SDS011;8345;50.902;6.956;2022-09-09T02:55:57;3.63;;;1.50;;
16468;SDS011;8345;50.902;6.956;2022-09-09T02:58:25;4.57;;;1.60;;
16468;SDS011;8345;50.902;6.956;2022-09-09T03:00:52;5.20;;;1.40;;
16468;SDS011;8345;50.902;6.956;2022-09-09T03:03:22;4.33;;;1.23;;
16468;SDS011;8345;50.902;6.956;2022-09-09T03:05:49;2.93;;;1.23;;
16468;SDS011;8345;50.902;6.956;2022-09-09T03:08:18;2.93;;;1.33;;
16468;SDS011;8345;50.902;6.956;2022-09-09T03:10:45;2.73;;;1.27;;
16468;SDS011;8345;50.902;6.956;2022-09-09T03:13:12;4.40;;;1.30;;
16468;SDS011;8345;50.902;6.956;2022-09-09T03:15:40;4.83;;;1.47;;
16468;SDS011;8345;50.902;6.956;2022-09-09T03:18:07;5.27;;;1.80;;
16468;SDS011;8345;50.902;6.956;2022-09-09T03:20:34;2.00;;;1.27;;
16468;SDS011;8345;50.902;6.956;2022-09-09T03:23:02;2.03;;;1.30;;
16468;SDS011;8345;50.902;6.956;2022-09-09T03:25:30;3.17;;;1.50;;
16468;SDS011;8345;50.902;6.956;2022-09-09T03:27:58;2.83;;;1.33;;
16468;SDS011;8345;50.902;6.956;2022-09-09T03:30:26;2.27;;;1.37;;
16468;SDS011;8345;50.902;6.956;2022-09-09T03:32:53;2.63;;;1.63;;
16468;SDS011;8345;50.902;6.956;2022-09-09T03:35:21;2.97;;;1.53;;
16468;SDS011;8345;50.902;6.956;2022-09-09T03:37:49;4.90;;;1.60;;
16468;SDS011;8345;50.902;6.956;2022-09-09T03:40:16;4.13;;;1.70;;
16468;SDS011;8345;50.902;6.956;2022-09-09T03:42:45;3.17;;;1.40;;
16468;SDS011;8345;50.902;6.956;2022-09-09T03:45:13;3.23;;;1.30;;
16468;SDS011;8345;50.902;6.956;2022-09-09T03:47:40;2.73;;;1.50;;
16468;SDS011;8345;50.902;6.956;2022-09-09T03:50:07;1.53;;;1.33;;
16468;SDS011;8345;50.902;6.956;2022-09-09T03:52:36;2.90;;;1.60;;
16468;SDS011;8345;50.902;6.956;2022-09-09T03:55:04;4.53;;;1.60;;
16468;SDS011;8345;50.902;6.956;2022-09-09T03:57:31;3.23;;;1.60;;
16468;SDS011;8345;50.902;6.956;2022-09-09T04:00:01;1.53;;;1.10;;
16468;SDS011;8345;50.902;6.956;2022-09-09T04:02:29;3.70;;;1.30;;
16468;SDS011;8345;50.902;6.956;2022-09-09T04:04:56;2.17;;;1.43;;
16468;SDS011;8345;50.902;6.956;2022-09-09T04:07:24;7.13;;;2.20;;
16468;SDS011;8345;50.902;6.956;2022-09-09T04:09:53;3.30;;;1.30;;
16468;SDS011;8345;50.902;6.956;2022-09-09T04:12:20;4.50;;;1.30;;
16468;SDS011;8345;50.902;6.956;2022-09-09T04:14:47;2.97;;;1.60;;
16468;SDS011;8345;50.902;6.956;2022-09-09T04:17:16;3.73;;;1.40;;
16468;SDS011;8345;50.902;6.956;2022-09-09T04:19:43;2.40;;;1.67;;
16468;SDS011;8345;50.902;6.956;2022-09-09T04:22:11;3.47;;;1.43;;
16468;SDS011;8345;50.902;6.956;2022-09-09T04:24:38;4.20;;;1.50;;
16468;SDS011;8345;50.902;6.956;2022-09-09T04:27:06;3.63;;;1.37;;
16468;SDS011;8345;50.902;6.956;2022-09-09T04:29:33;4.23;;;1.37;;
16468;SDS011;8345;50.902;6.956;2022-09-09T04:32:00;2.70;;;1.43;;
16468;SDS011;8345;50.902;6.956;2022-09-09T04:34:29;2.77;;;1.43;;
16468;SDS011;8345;50.902;6.956;2022-09-09T04:36:56;3.17;;;1.90;;
16468;SDS011;8345;50.902;6.956;2022-09-09T04:39:23;2.97;;;1.30;;
16468;SDS011;8345;50.902;6.956;2022-09-09T04:41:51;2.97;;;1.60;;
16468;SDS011;8345;50.902;6.956;2022-09-09T04:44:18;2.53;;;1.37;;
16468;SDS011;8345;50.902;6.956;2022-09-09T04:46:45;4.13;;;1.50;;
16468;SDS011;8345;50.902;6.956;2022-09-09T04:49:13;4.00;;;1.37;;
16468;SDS011;8345;50.902;6.956;2022-09-09T04:51:41;4.30;;;1.80;;
16468;SDS011;8345;50.902;6.956;2022-09-09T04:54:08;3.93;;;1.93;;
16468;SDS011;8345;50.902;6.956;2022-09-09T04:56:36;4.27;;;1.90;;
16468;SDS011;8345;50.902;6.956;2022-09-09T04:59:03;2.30;;;1.43;;
16468;SDS011;8345;50.902;6.956;2022-09-09T05:01:31;3.53;;;1.77;;
16468;SDS011;8345;50.902;6.956;2022-09-09T05:03:58;3.97;;;1.53;;
16468;SDS011;8345;50.902;6.956;2022-09-09T05:06:25;2.80;;;1.43;;
16468;SDS011;8345;50.902;6.956;2022-09-09T05:08:55;7.40;;;5.10;;
16468;SDS011;8345;50.902;6.956;2022-09-09T05:11:23;3.43;;;1.57;;
16468;SDS011;8345;50.902;6.956;2022-09-09T05:13:51;2.40;;;1.40;;
16468;SDS011;8345;50.902;6.956;2022-09-09T05:16:19;3.73;;;1.57;;
16468;SDS011;8345;50.902;6.956;2022-09-09T05:18:47;2.13;;;1.50;;
16468;SDS011;8345;50.902;6.956;2022-09-09T05:21:16;4.03;;;1.80;;
16468;SDS011;8345;50.902;6.956;2022-09-09T05:23:44;3.07;;;1.90;;
16468;SDS011;8345;50.902;6.956;2022-09-09T05:26:13;3.50;;;1.57;;
16468;SDS011;8345;50.902;6.956;2022-09-09T05:28:40;5.10;;;2.87;;
16468;SDS011;8345;50.902;6.956;2022-09-09T05:31:08;5.13;;;2.10;;
16468;SDS011;8345;50.902;6.956;2022-09-09T05:33:38;4.87;;;1.67;;
16468;SDS011;8345;50.902;6.956;2022-09-09T05:36:07;4.83;;;1.53;;
16468;SDS011;8345;50.902;6.956;2022-09-09T05:38:35;3.63;;;1.37;;
16468;SDS011;8345;50.902;6.956;2022-09-09T05:41:03;4.90;;;2.53;;
16468;SDS011;8345;50.902;6.956;2022-09-09T05:43:31;3.30;;;1.93;;
16468;SDS011;8345;50.902;6.956;2022-09-09T05:46:01;5.87;;;4.20;;
16468;SDS011;8345;50.902;6.956;2022-09-09T05:48:29;2.73;;;1.60;;
16468;SDS011;8345;50.902;6.956;2022-09-09T05:50:57;6.33;;;5.03;;
16468;SDS011;8345;50.902;6.956;2022-09-09T05:53:24;4.20;;;2.20;;
16468;SDS011;8345;50.902;6.956;2022-09-09T05:55:58;3.90;;;2.20;;
16468;SDS011;8345;50.902;6.956;2022-09-09T05:58:25;5.33;;;3.30;;
16468;SDS011;8345;50.902;6.956;2022-09-09T06:00:54;5.80;;;2.90;;
16468;SDS011;8345;50.902;6.956;2022-09-09T06:03:26;7.60;;;4.73;;
16468;SDS011;8345;50.902;6.956;2022-09-09T06:05:57;4.90;;;2.60;;
16468;SDS011;8345;50.902;6.956;2022-09-09T06:08:24;6.63;;;3.97;;
16468;SDS011;8345;50.902;6.956;2022-09-09T06:10:52;2.40;;;2.00;;
16468;SDS011;8345;50.902;6.956;2022-09-09T06:13:19;3.43;;;1.80;;
16468;SDS011;8345;50.902;6.956;2022-09-09T06:15:49;4.67;;;2.07;;
16468;SDS011;8345;50.902;6.956;2022-09-09T06:18:18;7.00;;;3.80;;
16468;SDS011;8345;50.902;6.956;2022-09-09T06:20:53;7.57;;;2.10;;
16468;SDS011;8345;50.902;6.956;2022-09-09T06:23:22;4.77;;;2.20;;
16468;SDS011;8345;50.902;6.956;2022-09-09T06:25:49;7.73;;;3.10;;
16468;SDS011;8345;50.902;6.956;2022-09-09T06:28:16;6.40;;;2.17;;
16468;SDS011;8345;50.902;6.956;2022-09-09T06:30:44;5.73;;;1.90;;
16468;SDS011;8345;50.902;6.956;2022-09-09T06:33:12;11.53;;;5.00;;
16468;SDS011;8345;50.902;6.956;2022-09-09T06:35:41;3.37;;;1.77;;
16468;SDS011;8345;50.902;6.956;2022-09-09T06:38:09;3.40;;;1.40;;
16468;SDS011;8345;50.902;6.956;2022-09-09T06:40:37;4.70;;;1.83;;
16468;SDS011;8345;50.902;6.956;2022-09-09T06:43:04;5.63;;;1.87;;
16468;SDS011;8345;50.902;6.956;2022-09-09T06:45:31;4.20;;;2.30;;
16468;SDS011;8345;50.902;6.956;2022-09-09T06:48:01;5.77;;;2.00;;
16468;SDS011;8345;50.902;6.956;2022-09-09T06:50:29;4.00;;;1.80;;
16468;SDS011;8345;50.902;6.956;2022-09-09T06:52:57;4.23;;;2.40;;
16468;SDS011;8345;50.902;6.956;2022-09-09T06:55:24;5.53;;;2.30;;
16468;SDS011;8345;50.902;6.956;2022-09-09T06:57:52;5.07;;;2.47;;
16468;SDS011;8345;50.902;6.956;2022-09-09T07:00:19;2.60;;;2.40;;
16468;SDS011;8345;50.902;6.956;2022-09-09T07:02:46;4.33;;;2.10;;
16468;SDS011;8345;50.902;6.956;2022-09-09T07:05:16;6.67;;;2.23;;
16468;SDS011;8345;50.902;6.956;2022-09-09T07:07:43;3.07;;;1.70;;
16468;SDS011;8345;50.902;6.956;2022-09-09T07:10:11;12.63;;;2.80;;
16468;SDS011;8345;50.902;6.956;2022-09-09T07:12:39;5.50;;;2.10;;
16468;SDS011;8345;50.902;6.956;2022-09-09T07:15:06;8.57;;;2.37;;
16468;SDS011;8345;50.902;6.956;2022-09-09T07:17:33;7.13;;;2.40;;
16468;SDS011;8345;50.902;6.956;2022-09-09T07:20:01;10.07;;;2.50;;
16468;SDS011;8345;50.902;6.956;2022-09-09T07:22:29;6.63;;;2.00;;
16468;SDS011;8345;50.902;6.956;2022-09-09T07:24:57;6.60;;;1.97;;
16468;SDS011;8345;50.902;6.956;2022-09-09T07:27:25;5.30;;;2.00;;
16468;SDS011;8345;50.902;6.956;2022-09-09T07:29:52;5.53;;;2.13;;
16468;SDS011;8345;50.902;6.956;2022-09-09T07:32:20;6.30;;;1.90;;
16468;SDS011;8345;50.902;6.956;2022-09-09T07:34:47;6.93;;;2.10;;
16468;SDS011;8345;50.902;6.956;2022-09-09T07:37:15;5.43;;;2.00;;
16468;SDS011;8345;50.902;6.956;2022-09-09T07:39:42;2.97;;;1.57;;
16468;SDS011;8345;50.902;6.956;2022-09-09T07:42:10;5.07;;;1.87;;
16468;SDS011;8345;50.902;6.956;2022-09-09T07:44:40;5.07;;;2.03;;
16468;SDS011;8345;50.902;6.956;2022-09-09T07:47:07;9.73;;;6.50;;
16468;SDS011;8345;50.902;6.956;2022-09-09T07:49:34;9.70;;;6.00;;
16468;SDS011;8345;50.902;6.956;2022-09-09T07:52:02;9.57;;;5.93;;
16468;SDS011;8345;50.902;6.956;2022-09-09T07:54:30;5.73;;;3.10;;
16468;SDS011;8345;50.902;6.956;2022-09-09T07:56:58;7.00;;;3.70;;
16468;SDS011;8345;50.902;6.956;2022-09-09T07:59:26;5.23;;;2.80;;
16468;SDS011;8345;50.902;6.956;2022-09-09T08:01:56;8.43;;;3.00;;
16468;SDS011;8345;50.902;6.956;2022-09-09T08:04:25;10.33;;;3.70;;
16468;SDS011;8345;50.902;6.956;2022-09-09T08:06:56;8.93;;;3.63;;
16468;SDS011;8345;50.902;6.956;2022-09-09T08:09:24;7.00;;;3.20;;
16468;SDS011;8345;50.902;6.956;2022-09-09T08:11:53;8.67;;;2.80;;
16468;SDS011;8345;50.902;6.956;2022-09-09T08:14:21;5.30;;;3.13;;
16468;SDS011;8345;50.902;6.956;2022-09-09T08:16:49;4.63;;;2.00;;
16468;SDS011;8345;50.902;6.956;2022-09-09T08:19:19;3.03;;;1.90;;
16468;SDS011;8345;50.902;6.956;2022-09-09T08:21:46;5.70;;;1.80;;
16468;SDS011;8345;50.902;6.956;2022-09-09T08:24:14;3.97;;;1.63;;
16468;SDS011;8345;50.902;6.956;2022-09-09T08:26:42;4.63;;;2.27;;
16468;SDS011;8345;50.902;6.956;2022-09-09T08:29:10;5.23;;;2.23;;
16468;SDS011;8345;50.902;6.956;2022-09-09T08:31:39;8.07;;;3.00;;
16468;SDS011;8345;50.902;6.956;2022-09-09T08:34:07;4.50;;;1.93;;
16468;SDS011;8345;50.902;6.956;2022-09-09T08:36:37;4.97;;;2.17;;
16468;SDS011;8345;50.902;6.956;2022-09-09T08:39:06;7.30;;;2.57;;
16468;SDS011;8345;50.902;6.956;2022-09-09T08:41:39;7.03;;;2.17;;
16468;SDS011;8345;50.902;6.956;2022-09-09T08:44:10;4.07;;;1.90;;
16468;SDS011;8345;50.902;6.956;2022-09-09T08:46:45;5.70;;;2.00;;
16468;SDS011;8345;50.902;6.956;2022-09-09T08:49:17;5.73;;;2.07;;
16468;SDS011;8345;50.902;6.956;2022-09-09T08:51:48;4.10;;;2.13;;
16468;SDS011;8345;50.902;6.956;2022-09-09T08:54:16;5.77;;;1.60;;
16468;SDS011;8345;50.902;6.956;2022-09-09T08:56:44;3.00;;;1.80;;
16468;SDS011;8345;50.902;6.956;2022-09-09T08:59:12;3.67;;;1.67;;
16468;SDS011;8345;50.902;6.956;2022-09-09T09:01:48;3.77;;;1.70;;
16468;SDS011;8345;50.902;6.956;2022-09-09T09:07:16;3.50;;;1.70;;
16468;SDS011;8345;50.902;6.956;2022-09-09T09:09:50;3.60;;;1.40;;
16468;SDS011;8345;50.902;6.956;2022-09-09T09:12:25;3.23;;;1.30;;
16468;SDS011;8345;50.902;6.956;2022-09-09T09:14:54;3.97;;;1.50;;
16468;SDS011;8345;50.902;6.956;2022-09-09T09:17:24;4.73;;;1.30;;
16468;SDS011;8345;50.902;6.956;2022-09-09T09:19:52;3.63;;;1.30;;
16468;SDS011;8345;50.902;6.956;2022-09-09T09:22:21;2.90;;;1.10;;
16468;SDS011;8345;50.902;6.956;2022-09-09T09:24:51;4.27;;;1.30;;
16468;SDS011;8345;50.902;6.956;2022-09-09T09:27:21;3.40;;;1.20;;
16468;SDS011;8345;50.902;6.956;2022-09-09T09:29:54;3.87;;;1.30;;
16468;SDS011;8345;50.902;6.956;2022-09-09T09:32:21;3.97;;;1.40;;
16468;SDS011;8345;50.902;6.956;2022-09-09T09:34:49;3.30;;;1.33;;
16468;SDS011;8345;50.902;6.956;2022-09-09T09:37:22;2.43;;;1.27;;
16468;SDS011;8345;50.902;6.956;2022-09-09T09:39:51;3.07;;;1.40;;
16468;SDS011;8345;50.902;6.956;2022-09-09T09:42:18;2.63;;;1.33;;
16468;SDS011;8345;50.902;6.956;2022-09-09T09:44:46;4.23;;;1.43;;
16468;SDS011;8345;50.902;6.956;2022-09-09T09:47:14;2.13;;;1.33;;
16468;SDS011;8345;50.902;6.956;2022-09-09T09:49:50;2.87;;;1.30;;
16468;SDS011;8345;50.902;6.956;2022-09-09T09:52:19;3.70;;;1.50;;
16468;SDS011;8345;50.902;6.956;2022-09-09T09:54:49;5.23;;;1.40;;
16468;SDS011;8345;50.902;6.956;2022-09-09T09:57:18;2.53;;;1.53;;
16468;SDS011;8345;50.902;6.956;2022-09-09T09:59:59;4.20;;;1.67;;
16468;SDS011;8345;50.902;6.956;2022-09-09T10:02:31;2.20;;;1.20;;
16468;SDS011;8345;50.902;6.956;2022-09-09T10:05:04;2.77;;;1.33;;
16468;SDS011;8345;50.902;6.956;2022-09-09T10:07:31;2.87;;;1.43;;
16468;SDS011;8345;50.902;6.956;2022-09-09T10:09:59;2.80;;;1.23;;
16468;SDS011;8345;50.902;6.956;2022-09-09T10:12:30;2.03;;;1.30;;
16468;SDS011;8345;50.902;6.956;2022-09-09T10:15:05;2.43;;;1.30;;
16468;SDS011;8345;50.902;6.956;2022-09-09T10:17:35;2.57;;;1.50;;
16468;SDS011;8345;50.902;6.956;2022-09-09T10:20:13;1.87;;;1.20;;
16468;SDS011;8345;50.902;6.956;2022-09-09T10:22:45;1.63;;;1.00;;
16468;SDS011;8345;50.902;6.956;2022-09-09T10:25:18;4.63;;;1.10;;
16468;SDS011;8345;50.902;6.956;2022-09-09T10:27:54;3.20;;;1.40;;
16468;SDS011;8345;50.902;6.956;2022-09-09T10:30:24;2.30;;;1.10;;
16468;SDS011;8345;50.902;6.956;2022-09-09T10:32:54;3.73;;;1.10;;
16468;SDS011;8345;50.902;6.956;2022-09-09T10:35:28;2.73;;;1.40;;
16468;SDS011;8345;50.902;6.956;2022-09-09T10:40:43;1.57;;;1.07;;
16468;SDS011;8345;50.902;6.956;2022-09-09T10:43:19;3.67;;;1.50;;
16468;SDS011;8345;50.902;6.956;2022-09-09T10:45:51;5.33;;;1.50;;
16468;SDS011;8345;50.902;6.956;2022-09-09T10:48:28;3.83;;;1.17;;
16468;SDS011;8345;50.902;6.956;2022-09-09T10:51:00;4.00;;;1.10;;
16468;SDS011;8345;50.902;6.956;2022-09-09T10:53:35;2.93;;;1.23;;
16468;SDS011;8345;50.902;6.956;2022-09-09T10:56:04;1.60;;;0.80;;
16468;SDS011;8345;50.902;6.956;2022-09-09T10:58:35;5.03;;;1.03;;
16468;SDS011;8345;50.902;6.956;2022-09-09T11:01:06;3.60;;;1.10;;
16468;SDS011;8345;50.902;6.956;2022-09-09T11:03:37;2.60;;;0.97;;
16468;SDS011;8345;50.902;6.956;2022-09-09T11:06:06;1.97;;;1.10;;
16468;SDS011;8345;50.902;6.956;2022-09-09T11:08:35;3.23;;;1.17;;
16468;SDS011;8345;50.902;6.956;2022-09-09T11:11:06;3.17;;;1.10;;
16468;SDS011;8345;50.902;6.956;2022-09-09T11:13:39;3.87;;;1.33;;
16468;SDS011;8345;50.902;6.956;2022-09-09T11:16:14;3.27;;;1.40;;
16468;SDS011;8345;50.902;6.956;2022-09-09T11:18:42;4.40;;;1.30;;
16468;SDS011;8345;50.902;6.956;2022-09-09T11:21:12;3.10;;;1.17;;
16468;SDS011;8345;50.902;6.956;2022-09-09T11:23:44;1.90;;;0.93;;
16468;SDS011;8345;50.902;6.956;2022-09-09T11:26:14;4.10;;;1.10;;
16468;SDS011;8345;50.902;6.956;2022-09-09T11:28:51;2.13;;;1.00;;
16468;SDS011;8345;50.902;6.956;2022-09-09T11:31:30;2.47;;;1.20;;
16468;SDS011;8345;50.902;6.956;2022-09-09T11:34:01;3.53;;;1.20;;
16468;SDS011;8345;50.902;6.956;2022-09-09T11:36:41;2.37;;;1.20;;
16468;SDS011;8345;50.902;6.956;2022-09-09T11:39:17;5.13;;;1.27;;
16468;SDS011;8345;50.902;6.956;2022-09-09T11:41:44;2.50;;;1.00;;
16468;SDS011;8345;50.902;6.956;2022-09-09T11:44:17;2.87;;;1.30;;
16468;SDS011;8345;50.902;6.956;2022-09-09T11:46:46;2.20;;;1.20;;
16468;SDS011;8345;50.902;6.956;2022-09-09T11:49:25;6.47;;;1.37;;
16468;SDS011;8345;50.902;6.956;2022-09-09T11:51:53;2.60;;;1.07;;
16468;SDS011;8345;50.902;6.956;2022-09-09T11:54:30;2.33;;;1.00;;
16468;SDS011;8345;50.902;6.956;2022-09-09T11:56:58;2.40;;;0.90;;
16468;SDS011;8345;50.902;6.956;2022-09-09T11:59:27;3.07;;;1.00;;
16468;SDS011;8345;50.902;6.956;2022-09-09T12:01:56;1.97;;;1.10;;
16468;SDS011;8345;50.902;6.956;2022-09-09T12:04:30;3.57;;;1.03;;
16468;SDS011;8345;50.902;6.956;2022-09-09T12:06:59;2.80;;;1.10;;
16468;SDS011;8345;50.902;6.956;2022-09-09T12:09:29;4.40;;;1.20;;
16468;SDS011;8345;50.902;6.956;2022-09-09T12:14:56;3.43;;;1.40;;
16468;SDS011;8345;50.902;6.956;2022-09-09T12:17:25;3.30;;;1.20;;
16468;SDS011;8345;50.902;6.956;2022-09-09T12:19:59;2.83;;;1.20;;
16468;SDS011;8345;50.902;6.956;2022-09-09T12:22:31;3.73;;;1.17;;
16468;SDS011;8345;50.902;6.956;2022-09-09T12:25:03;5.60;;;1.27;;
16468;SDS011;8345;50.902;6.956;2022-09-09T12:27:34;2.77;;;1.20;;
16468;SDS011;8345;50.902;6.956;2022-09-09T12:30:07;4.23;;;1.10;;
16468;SDS011;8345;50.902;6.956;2022-09-09T12:32:35;2.07;;;1.17;;
16468;SDS011;8345;50.902;6.956;2022-09-09T12:35:03;3.20;;;1.07;;
16468;SDS011;8345;50.902;6.956;2022-09-09T12:37:37;2.47;;;1.13;;
16468;SDS011;8345;50.902;6.956;2022-09-09T12:40:06;3.97;;;1.43;;
16468;SDS011;8345;50.902;6.956;2022-09-09T12:42:39;2.30;;;1.07;;
16468;SDS011;8345;50.902;6.956;2022-09-09T12:45:16;3.40;;;1.20;;
16468;SDS011;8345;50.902;6.956;2022-09-09T12:47:44;2.93;;;1.47;;
16468;SDS011;8345;50.902;6.956;2022-09-09T12:50:15;3.70;;;1.23;;
16468;SDS011;8345;50.902;6.956;2022-09-09T12:52:42;1.80;;;0.90;;
16468;SDS011;8345;50.902;6.956;2022-09-09T12:55:15;2.27;;;1.20;;
16468;SDS011;8345;50.902;6.956;2022-09-09T12:57:42;2.30;;;1.10;;
16468;SDS011;8345;50.902;6.956;2022-09-09T13:00:12;3.67;;;0.93;;
16468;SDS011;8345;50.902;6.956;2022-09-09T13:02:50;4.88;;;1.05;;
16468;SDS011;8345;50.902;6.956;2022-09-09T13:05:18;3.53;;;1.40;;
16468;SDS011;8345;50.902;6.956;2022-09-09T13:07:46;2.33;;;1.10;;
16468;SDS011;8345;50.902;6.956;2022-09-09T13:10:13;2.17;;;1.00;;
16468;SDS011;8345;50.902;6.956;2022-09-09T13:12:41;3.00;;;1.15;;
16468;SDS011;8345;50.902;6.956;2022-09-09T13:15:11;2.70;;;1.10;;
16468;SDS011;8345;50.902;6.956;2022-09-09T13:17:39;1.60;;;1.00;;
16468;SDS011;8345;50.902;6.956;2022-09-09T13:20:15;2.93;;;1.30;;
16468;SDS011;8345;50.902;6.956;2022-09-09T13:22:43;1.50;;;1.00;;
16468;SDS011;8345;50.902;6.956;2022-09-09T13:25:17;1.83;;;0.90;;
16468;SDS011;8345;50.902;6.956;2022-09-09T13:27:51;3.03;;;1.05;;
16468;SDS011;8345;50.902;6.956;2022-09-09T13:30:20;2.67;;;0.98;;
16468;SDS011;8345;50.902;6.956;2022-09-09T13:32:59;1.65;;;0.90;;
16468;SDS011;8345;50.902;6.956;2022-09-09T13:35:28;2.47;;;0.93;;
16468;SDS011;8345;50.902;6.956;2022-09-09T13:37:55;2.40;;;0.90;;
16468;SDS011;8345;50.902;6.956;2022-09-09T13:40:23;2.88;;;0.98;;
16468;SDS011;8345;50.902;6.956;2022-09-09T13:42:51;2.40;;;1.00;;
16468;SDS011;8345;50.902;6.956;2022-09-09T13:45:19;1.55;;;1.00;;
16468;SDS011;8345;50.902;6.956;2022-09-09T13:47:47;2.80;;;0.93;;
16468;SDS011;8345;50.902;6.956;2022-09-09T13:50:18;6.30;;;0.73;;
16468;SDS011;8345;50.902;6.956;2022-09-09T13:52:47;2.22;;;0.70;;
16468;SDS011;8345;50.902;6.956;2022-09-09T13:55:16;1.50;;;0.90;;
16468;SDS011;8345;50.902;6.956;2022-09-09T13:57:50;1.65;;;0.90;;
16468;SDS011;8345;50.902;6.956;2022-09-09T14:00:17;1.98;;;0.88;;
16468;SDS011;8345;50.902;6.956;2022-09-09T14:02:45;2.28;;;1.00;;
16468;SDS011;8345;50.902;6.956;2022-09-09T14:05:13;1.42;;;0.88;;
16468;SDS011;8345;50.902;6.956;2022-09-09T14:07:41;4.97;;;1.17;;
16468;SDS011;8345;50.902;6.956;2022-09-09T14:10:11;3.10;;;0.93;;
16468;SDS011;8345;50.902;6.956;2022-09-09T14:12:38;2.03;;;1.05;;
16468;SDS011;8345;50.902;6.956;2022-09-09T14:15:06;1.10;;;0.60;;
16468;SDS011;8345;50.902;6.956;2022-09-09T14:17:33;1.52;;;0.80;;
16468;SDS011;8345;50.902;6.956;2022-09-09T14:25:10;2.85;;;1.38;;
16468;SDS011;8345;50.902;6.956;2022-09-09T14:30:14;2.40;;;1.13;;
16468;SDS011;8345;50.902;6.956;2022-09-09T14:32:42;1.63;;;0.77;;
16468;SDS011;8345;50.902;6.956;2022-09-09T14:35:09;2.00;;;0.90;;
16468;SDS011;8345;50.902;6.956;2022-09-09T14:37:37;2.55;;;0.88;;
16468;SDS011;8345;50.902;6.956;2022-09-09T14:40:05;2.37;;;0.67;;
16468;SDS011;8345;50.902;6.956;2022-09-09T14:47:42;3.67;;;1.40;;
16468;SDS011;8345;50.902;6.956;2022-09-09T14:50:10;3.57;;;1.00;;
16468;SDS011;8345;50.902;6.956;2022-09-09T14:52:38;3.70;;;1.33;;
16468;SDS011;8345;50.902;6.956;2022-09-09T14:55:05;4.63;;;1.40;;
16468;SDS011;8345;50.902;6.956;2022-09-09T15:02:46;3.30;;;1.20;;
16468;SDS011;8345;50.902;6.956;2022-09-09T15:23:33;2.07;;;1.30;;
16468;SDS011;8345;50.902;6.956;2022-09-09T15:49:25;3.53;;;1.30;;
16468;SDS011;8345;50.902;6.956;2022-09-09T15:51:53;2.30;;;1.23;;
16468;SDS011;8345;50.902;6.956;2022-09-09T15:54:21;3.30;;;1.50;;
16468;SDS011;8345;50.902;6.956;2022-09-09T15:56:50;2.80;;;1.07;;
16468;SDS011;8345;50.902;6.956;2022-09-09T15:59:17;1.93;;;1.00;;
16468;SDS011;8345;50.902;6.956;2022-09-09T16:01:45;2.47;;;0.97;;
16468;SDS011;8345;50.902;6.956;2022-09-09T16:04:12;3.07;;;1.17;;
16468;SDS011;8345;50.902;6.956;2022-09-09T16:06:46;2.90;;;1.30;;
16468;SDS011;8345;50.902;6.956;2022-09-09T16:09:13;2.20;;;1.23;;
16468;SDS011;8345;50.902;6.956;2022-09-09T16:11:40;3.37;;;1.03;;
16468;SDS011;8345;50.902;6.956;2022-09-09T16:14:08;1.67;;;1.20;;
16468;SDS011;8345;50.902;6.956;2022-09-09T16:16:36;2.73;;;1.13;;
16468;SDS011;8345;50.902;6.956;2022-09-09T16:19:07;4.93;;;1.43;;
16468;SDS011;8345;50.902;6.956;2022-09-09T16:21:36;2.33;;;1.23;;